sensor_id;sensor_type;location;lat;lon;timestamp;P1;durP1;ratioP1;P2;durP2;ratioP2
25962;SDS011;13760;52.588;13.406;2022-10-16T00:00:56;2.95;;;1.98;;
25962;SDS011;13760;52.588;13.406;2022-10-16T00:03:22;3.13;;;2.20;;
25962;SDS011;13760;52.588;13.406;2022-10-16T00:05:50;3.50;;;2.15;;
25962;SDS011;13760;52.588;13.406;2022-10-16T00:08:15;2.20;;;1.90;;
25962;SDS011;13760;52.588;13.406;2022-10-16T00:10:41;2.38;;;1.88;;
25962;SDS011;13760;52.588;13.406;2022-10-16T00:13:07;2.75;;;2.03;;
25962;SDS011;13760;52.588;13.406;2022-10-16T00:15:34;1.63;;;1.52;;
25962;SDS011;13760;52.588;13.406;2022-10-16T00:18:02;2.45;;;2.15;;
25962;SDS011;13760;52.588;13.406;2022-10-16T00:20:28;2.35;;;1.92;;
25962;SDS011;13760;52.588;13.406;2022-10-16T00:22:56;7.22;;;2.17;;
25962;SDS011;13760;52.588;13.406;2022-10-16T00:25:22;2.67;;;2.00;;
25962;SDS011;13760;52.588;13.406;2022-10-16T00:27:48;3.63;;;2.45;;
25962;SDS011;13760;52.588;13.406;2022-10-16T00:30:13;3.63;;;2.65;;
25962;SDS011;13760;52.588;13.406;2022-10-16T00:32:39;2.00;;;1.80;;
25962;SDS011;13760;52.588;13.406;2022-10-16T00:35:04;3.50;;;2.60;;
25962;SDS011;13760;52.588;13.406;2022-10-16T00:37:30;3.85;;;2.33;;
25962;SDS011;13760;52.588;13.406;2022-10-16T00:39:56;3.75;;;2.10;;
25962;SDS011;13760;52.588;13.406;2022-10-16T00:42:22;1.85;;;1.75;;
25962;SDS011;13760;52.588;13.406;2022-10-16T00:44:51;2.72;;;1.90;;
25962;SDS011;13760;52.588;13.406;2022-10-16T00:47:30;2.40;;;1.90;;
25962;SDS011;13760;52.588;13.406;2022-10-16T00:50:11;3.67;;;1.80;;
25962;SDS011;13760;52.588;13.406;2022-10-16T00:52:44;6.78;;;2.30;;
25962;SDS011;13760;52.588;13.406;2022-10-16T00:55:12;3.40;;;1.80;;
25962;SDS011;13760;52.588;13.406;2022-10-16T00:57:38;3.60;;;2.05;;
25962;SDS011;13760;52.588;13.406;2022-10-16T01:00:05;4.00;;;2.10;;
25962;SDS011;13760;52.588;13.406;2022-10-16T01:02:33;1.77;;;1.63;;
25962;SDS011;13760;52.588;13.406;2022-10-16T01:04:58;2.88;;;1.90;;
25962;SDS011;13760;52.588;13.406;2022-10-16T01:07:34;3.90;;;2.13;;
25962;SDS011;13760;52.588;13.406;2022-10-16T01:10:27;3.08;;;2.10;;
25962;SDS011;13760;52.588;13.406;2022-10-16T01:13:16;3.17;;;1.90;;
25962;SDS011;13760;52.588;13.406;2022-10-16T01:15:57;2.80;;;1.95;;
25962;SDS011;13760;52.588;13.406;2022-10-16T01:20:54;1.90;;;1.70;;
25962;SDS011;13760;52.588;13.406;2022-10-16T01:29:15;4.93;;;1.77;;
25962;SDS011;13760;52.588;13.406;2022-10-16T01:31:47;2.00;;;1.75;;
25962;SDS011;13760;52.588;13.406;2022-10-16T01:34:16;3.90;;;1.57;;
25962;SDS011;13760;52.588;13.406;2022-10-16T01:36:47;3.20;;;1.88;;
25962;SDS011;13760;52.588;13.406;2022-10-16T01:39:19;3.17;;;1.33;;
25962;SDS011;13760;52.588;13.406;2022-10-16T01:41:48;2.75;;;1.70;;
25962;SDS011;13760;52.588;13.406;2022-10-16T01:44:25;2.95;;;1.85;;
25962;SDS011;13760;52.588;13.406;2022-10-16T01:46:54;2.35;;;1.63;;
25962;SDS011;13760;52.588;13.406;2022-10-16T01:49:21;7.93;;;1.85;;
25962;SDS011;13760;52.588;13.406;2022-10-16T01:51:50;4.18;;;1.90;;
25962;SDS011;13760;52.588;13.406;2022-10-16T01:54:19;1.88;;;1.60;;
25962;SDS011;13760;52.588;13.406;2022-10-16T01:56:47;2.65;;;1.60;;
25962;SDS011;13760;52.588;13.406;2022-10-16T01:59:15;2.22;;;1.80;;
25962;SDS011;13760;52.588;13.406;2022-10-16T02:01:49;3.78;;;1.75;;
25962;SDS011;13760;52.588;13.406;2022-10-16T02:04:21;1.70;;;1.60;;
25962;SDS011;13760;52.588;13.406;2022-10-16T02:06:52;2.70;;;1.70;;
25962;SDS011;13760;52.588;13.406;2022-10-16T02:09:19;1.70;;;1.60;;
25962;SDS011;13760;52.588;13.406;2022-10-16T02:11:44;2.22;;;1.52;;
25962;SDS011;13760;52.588;13.406;2022-10-16T02:14:10;3.67;;;1.83;;
25962;SDS011;13760;52.588;13.406;2022-10-16T02:16:37;2.65;;;1.50;;
25962;SDS011;13760;52.588;13.406;2022-10-16T02:19:08;3.53;;;1.90;;
25962;SDS011;13760;52.588;13.406;2022-10-16T02:21:43;1.90;;;1.55;;
25962;SDS011;13760;52.588;13.406;2022-10-16T02:30:02;2.30;;;1.75;;
25962;SDS011;13760;52.588;13.406;2022-10-16T02:32:33;2.35;;;1.70;;
25962;SDS011;13760;52.588;13.406;2022-10-16T02:35:02;2.17;;;1.70;;
25962;SDS011;13760;52.588;13.406;2022-10-16T02:37:29;4.10;;;1.63;;
25962;SDS011;13760;52.588;13.406;2022-10-16T02:39:56;2.83;;;1.70;;
25962;SDS011;13760;52.588;13.406;2022-10-16T02:42:27;3.72;;;1.80;;
25962;SDS011;13760;52.588;13.406;2022-10-16T02:45:00;3.03;;;1.80;;
25962;SDS011;13760;52.588;13.406;2022-10-16T02:47:26;3.10;;;1.65;;
25962;SDS011;13760;52.588;13.406;2022-10-16T02:49:51;2.90;;;1.60;;
25962;SDS011;13760;52.588;13.406;2022-10-16T02:52:17;1.95;;;1.58;;
25962;SDS011;13760;52.588;13.406;2022-10-16T02:54:43;3.83;;;1.88;;
25962;SDS011;13760;52.588;13.406;2022-10-16T02:57:08;2.10;;;1.58;;
25962;SDS011;13760;52.588;13.406;2022-10-16T02:59:34;2.20;;;1.70;;
25962;SDS011;13760;52.588;13.406;2022-10-16T03:01:59;3.17;;;1.77;;
25962;SDS011;13760;52.588;13.406;2022-10-16T03:04:25;1.90;;;1.63;;
25962;SDS011;13760;52.588;13.406;2022-10-16T03:06:51;2.38;;;1.50;;
25962;SDS011;13760;52.588;13.406;2022-10-16T03:09:16;3.10;;;1.65;;
25962;SDS011;13760;52.588;13.406;2022-10-16T03:11:42;2.60;;;1.80;;
25962;SDS011;13760;52.588;13.406;2022-10-16T03:14:07;3.78;;;1.77;;
25962;SDS011;13760;52.588;13.406;2022-10-16T03:16:33;2.88;;;1.60;;
25962;SDS011;13760;52.588;13.406;2022-10-16T03:18:58;1.70;;;1.50;;
25962;SDS011;13760;52.588;13.406;2022-10-16T03:21:24;2.22;;;1.63;;
25962;SDS011;13760;52.588;13.406;2022-10-16T03:23:50;4.32;;;1.85;;
25962;SDS011;13760;52.588;13.406;2022-10-16T03:26:15;2.30;;;1.60;;
25962;SDS011;13760;52.588;13.406;2022-10-16T03:28:41;3.88;;;1.60;;
25962;SDS011;13760;52.588;13.406;2022-10-16T03:31:06;2.00;;;1.60;;
25962;SDS011;13760;52.588;13.406;2022-10-16T03:33:33;3.00;;;1.80;;
25962;SDS011;13760;52.588;13.406;2022-10-16T03:35:58;2.88;;;1.52;;
25962;SDS011;13760;52.588;13.406;2022-10-16T03:38:25;3.38;;;1.70;;
25962;SDS011;13760;52.588;13.406;2022-10-16T03:40:50;2.70;;;1.92;;
25962;SDS011;13760;52.588;13.406;2022-10-16T03:43:16;2.83;;;1.77;;
25962;SDS011;13760;52.588;13.406;2022-10-16T03:45:42;3.13;;;1.80;;
25962;SDS011;13760;52.588;13.406;2022-10-16T03:48:07;2.72;;;1.92;;
25962;SDS011;13760;52.588;13.406;2022-10-16T03:50:33;2.60;;;1.98;;
25962;SDS011;13760;52.588;13.406;2022-10-16T03:52:58;7.32;;;2.03;;
25962;SDS011;13760;52.588;13.406;2022-10-16T03:55:24;3.75;;;1.83;;
25962;SDS011;13760;52.588;13.406;2022-10-16T03:57:49;2.88;;;1.73;;
25962;SDS011;13760;52.588;13.406;2022-10-16T04:00:15;1.75;;;1.60;;
25962;SDS011;13760;52.588;13.406;2022-10-16T04:02:40;3.28;;;2.08;;
25962;SDS011;13760;52.588;13.406;2022-10-16T04:05:06;2.05;;;1.80;;
25962;SDS011;13760;52.588;13.406;2022-10-16T04:07:32;2.40;;;1.92;;
25962;SDS011;13760;52.588;13.406;2022-10-16T04:10:01;2.00;;;1.80;;
25962;SDS011;13760;52.588;13.406;2022-10-16T04:12:27;2.05;;;1.83;;
25962;SDS011;13760;52.588;13.406;2022-10-16T04:14:53;4.70;;;2.00;;
25962;SDS011;13760;52.588;13.406;2022-10-16T04:17:18;4.32;;;1.98;;
25962;SDS011;13760;52.588;13.406;2022-10-16T04:19:44;2.38;;;2.00;;
25962;SDS011;13760;52.588;13.406;2022-10-16T04:22:10;4.35;;;2.35;;
25962;SDS011;13760;52.588;13.406;2022-10-16T04:24:35;2.58;;;2.00;;
25962;SDS011;13760;52.588;13.406;2022-10-16T04:27:01;2.65;;;2.17;;
25962;SDS011;13760;52.588;13.406;2022-10-16T04:29:26;4.20;;;1.92;;
25962;SDS011;13760;52.588;13.406;2022-10-16T04:31:52;3.35;;;2.40;;
25962;SDS011;13760;52.588;13.406;2022-10-16T04:34:18;3.53;;;2.17;;
25962;SDS011;13760;52.588;13.406;2022-10-16T04:36:43;2.80;;;1.95;;
25962;SDS011;13760;52.588;13.406;2022-10-16T04:39:11;4.10;;;2.20;;
25962;SDS011;13760;52.588;13.406;2022-10-16T04:41:37;3.90;;;2.22;;
25962;SDS011;13760;52.588;13.406;2022-10-16T04:44:02;2.08;;;1.88;;
25962;SDS011;13760;52.588;13.406;2022-10-16T04:46:28;2.45;;;2.13;;
25962;SDS011;13760;52.588;13.406;2022-10-16T04:48:53;2.90;;;2.17;;
25962;SDS011;13760;52.588;13.406;2022-10-16T04:51:19;3.03;;;2.20;;
25962;SDS011;13760;52.588;13.406;2022-10-16T04:53:44;2.20;;;2.00;;
25962;SDS011;13760;52.588;13.406;2022-10-16T04:56:10;3.20;;;1.85;;
25962;SDS011;13760;52.588;13.406;2022-10-16T04:58:36;2.55;;;2.10;;
25962;SDS011;13760;52.588;13.406;2022-10-16T05:01:01;3.97;;;1.80;;
25962;SDS011;13760;52.588;13.406;2022-10-16T05:03:27;2.78;;;2.10;;
25962;SDS011;13760;52.588;13.406;2022-10-16T05:05:52;2.25;;;2.05;;
25962;SDS011;13760;52.588;13.406;2022-10-16T05:08:18;4.90;;;2.30;;
25962;SDS011;13760;52.588;13.406;2022-10-16T05:10:44;2.40;;;2.20;;
25962;SDS011;13760;52.588;13.406;2022-10-16T05:13:10;4.18;;;2.40;;
25962;SDS011;13760;52.588;13.406;2022-10-16T05:15:36;2.70;;;2.40;;
25962;SDS011;13760;52.588;13.406;2022-10-16T05:18:02;3.33;;;2.65;;
25962;SDS011;13760;52.588;13.406;2022-10-16T05:20:27;3.03;;;2.60;;
25962;SDS011;13760;52.588;13.406;2022-10-16T05:22:53;4.38;;;2.60;;
25962;SDS011;13760;52.588;13.406;2022-10-16T05:25:19;2.90;;;2.53;;
25962;SDS011;13760;52.588;13.406;2022-10-16T05:27:48;4.10;;;2.83;;
25962;SDS011;13760;52.588;13.406;2022-10-16T05:30:14;4.25;;;2.58;;
25962;SDS011;13760;52.588;13.406;2022-10-16T05:32:40;3.15;;;2.70;;
25962;SDS011;13760;52.588;13.406;2022-10-16T05:35:06;5.70;;;2.65;;
25962;SDS011;13760;52.588;13.406;2022-10-16T05:37:34;2.97;;;2.53;;
25962;SDS011;13760;52.588;13.406;2022-10-16T05:40:00;2.75;;;2.45;;
25962;SDS011;13760;52.588;13.406;2022-10-16T05:42:26;2.65;;;2.45;;
25962;SDS011;13760;52.588;13.406;2022-10-16T05:44:51;3.25;;;2.33;;
25962;SDS011;13760;52.588;13.406;2022-10-16T05:47:17;5.50;;;2.70;;
25962;SDS011;13760;52.588;13.406;2022-10-16T05:49:43;4.70;;;2.47;;
25962;SDS011;13760;52.588;13.406;2022-10-16T05:52:08;2.53;;;2.33;;
25962;SDS011;13760;52.588;13.406;2022-10-16T05:54:34;2.90;;;2.47;;
25962;SDS011;13760;52.588;13.406;2022-10-16T05:56:59;2.35;;;2.15;;
25962;SDS011;13760;52.588;13.406;2022-10-16T05:59:25;4.50;;;2.83;;
25962;SDS011;13760;52.588;13.406;2022-10-16T06:01:50;3.88;;;2.55;;
25962;SDS011;13760;52.588;13.406;2022-10-16T06:04:18;4.68;;;2.67;;
25962;SDS011;13760;52.588;13.406;2022-10-16T06:06:43;3.25;;;2.95;;
25962;SDS011;13760;52.588;13.406;2022-10-16T06:09:09;4.85;;;2.53;;
25962;SDS011;13760;52.588;13.406;2022-10-16T06:11:35;2.70;;;2.38;;
25962;SDS011;13760;52.588;13.406;2022-10-16T06:14:01;2.78;;;2.47;;
25962;SDS011;13760;52.588;13.406;2022-10-16T06:16:31;3.67;;;2.50;;
25962;SDS011;13760;52.588;13.406;2022-10-16T06:18:57;3.53;;;2.33;;
25962;SDS011;13760;52.588;13.406;2022-10-16T06:21:25;3.00;;;2.30;;
25962;SDS011;13760;52.588;13.406;2022-10-16T06:23:53;3.60;;;2.63;;
25962;SDS011;13760;52.588;13.406;2022-10-16T06:26:22;3.83;;;2.70;;
25962;SDS011;13760;52.588;13.406;2022-10-16T06:28:50;3.53;;;2.50;;
25962;SDS011;13760;52.588;13.406;2022-10-16T06:31:16;3.10;;;2.42;;
25962;SDS011;13760;52.588;13.406;2022-10-16T06:33:42;3.38;;;2.28;;
25962;SDS011;13760;52.588;13.406;2022-10-16T06:36:09;5.82;;;2.75;;
25962;SDS011;13760;52.588;13.406;2022-10-16T06:38:36;3.42;;;2.90;;
25962;SDS011;13760;52.588;13.406;2022-10-16T06:41:04;3.08;;;2.35;;
25962;SDS011;13760;52.588;13.406;2022-10-16T06:43:31;2.85;;;2.50;;
25962;SDS011;13760;52.588;13.406;2022-10-16T06:45:57;6.63;;;2.80;;
25962;SDS011;13760;52.588;13.406;2022-10-16T06:48:24;4.28;;;2.53;;
25962;SDS011;13760;52.588;13.406;2022-10-16T06:50:57;3.47;;;2.38;;
25962;SDS011;13760;52.588;13.406;2022-10-16T06:53:35;4.35;;;2.30;;
25962;SDS011;13760;52.588;13.406;2022-10-16T06:56:14;2.92;;;2.65;;
25962;SDS011;13760;52.588;13.406;2022-10-16T06:58:45;5.57;;;2.67;;
25962;SDS011;13760;52.588;13.406;2022-10-16T07:01:11;5.18;;;2.70;;
25962;SDS011;13760;52.588;13.406;2022-10-16T07:03:38;4.25;;;2.50;;
25962;SDS011;13760;52.588;13.406;2022-10-16T07:06:05;4.15;;;2.50;;
25962;SDS011;13760;52.588;13.406;2022-10-16T07:08:33;5.35;;;2.42;;
25962;SDS011;13760;52.588;13.406;2022-10-16T07:11:00;6.05;;;2.70;;
25962;SDS011;13760;52.588;13.406;2022-10-16T07:13:27;4.28;;;2.50;;
25962;SDS011;13760;52.588;13.406;2022-10-16T07:15:53;3.30;;;2.42;;
25962;SDS011;13760;52.588;13.406;2022-10-16T07:18:18;4.50;;;2.30;;
25962;SDS011;13760;52.588;13.406;2022-10-16T07:20:44;3.38;;;2.65;;
25962;SDS011;13760;52.588;13.406;2022-10-16T07:23:09;4.93;;;2.55;;
25962;SDS011;13760;52.588;13.406;2022-10-16T07:25:35;5.13;;;2.78;;
25962;SDS011;13760;52.588;13.406;2022-10-16T07:28:01;4.25;;;2.13;;
25962;SDS011;13760;52.588;13.406;2022-10-16T07:30:26;5.18;;;2.47;;
25962;SDS011;13760;52.588;13.406;2022-10-16T07:32:53;5.05;;;2.45;;
25962;SDS011;13760;52.588;13.406;2022-10-16T07:35:25;3.75;;;2.50;;
25962;SDS011;13760;52.588;13.406;2022-10-16T07:37:50;3.80;;;2.20;;
25962;SDS011;13760;52.588;13.406;2022-10-16T07:40:16;3.85;;;2.40;;
25962;SDS011;13760;52.588;13.406;2022-10-16T07:42:41;3.53;;;2.22;;
25962;SDS011;13760;52.588;13.406;2022-10-16T07:45:07;3.58;;;2.13;;
25962;SDS011;13760;52.588;13.406;2022-10-16T07:47:33;2.65;;;1.92;;
25962;SDS011;13760;52.588;13.406;2022-10-16T07:49:58;3.25;;;2.15;;
25962;SDS011;13760;52.588;13.406;2022-10-16T07:52:24;2.45;;;1.83;;
25962;SDS011;13760;52.588;13.406;2022-10-16T07:54:50;3.50;;;2.08;;
25962;SDS011;13760;52.588;13.406;2022-10-16T07:57:15;3.90;;;1.80;;
25962;SDS011;13760;52.588;13.406;2022-10-16T07:59:45;2.33;;;1.77;;
25962;SDS011;13760;52.588;13.406;2022-10-16T08:02:11;3.53;;;1.88;;
25962;SDS011;13760;52.588;13.406;2022-10-16T08:04:37;3.05;;;1.90;;
25962;SDS011;13760;52.588;13.406;2022-10-16T08:07:03;4.50;;;1.60;;
25962;SDS011;13760;52.588;13.406;2022-10-16T08:09:28;2.47;;;1.75;;
25962;SDS011;13760;52.588;13.406;2022-10-16T08:11:54;2.97;;;1.80;;
25962;SDS011;13760;52.588;13.406;2022-10-16T08:14:20;4.65;;;2.03;;
25962;SDS011;13760;52.588;13.406;2022-10-16T08:16:45;4.63;;;1.88;;
25962;SDS011;13760;52.588;13.406;2022-10-16T08:19:11;3.65;;;1.75;;
25962;SDS011;13760;52.588;13.406;2022-10-16T08:21:36;4.82;;;1.83;;
25962;SDS011;13760;52.588;13.406;2022-10-16T08:24:02;3.67;;;1.70;;
25962;SDS011;13760;52.588;13.406;2022-10-16T08:26:28;2.05;;;1.45;;
25962;SDS011;13760;52.588;13.406;2022-10-16T08:28:54;2.63;;;1.73;;
25962;SDS011;13760;52.588;13.406;2022-10-16T08:31:20;3.70;;;1.83;;
25962;SDS011;13760;52.588;13.406;2022-10-16T08:33:46;3.67;;;1.70;;
25962;SDS011;13760;52.588;13.406;2022-10-16T08:36:13;3.85;;;1.77;;
25962;SDS011;13760;52.588;13.406;2022-10-16T08:38:40;3.35;;;1.60;;
25962;SDS011;13760;52.588;13.406;2022-10-16T08:44:09;2.83;;;1.50;;
25962;SDS011;13760;52.588;13.406;2022-10-16T08:50:02;3.25;;;1.45;;
25962;SDS011;13760;52.588;13.406;2022-10-16T08:52:38;3.33;;;1.73;;
25962;SDS011;13760;52.588;13.406;2022-10-16T08:55:06;5.07;;;1.40;;
25962;SDS011;13760;52.588;13.406;2022-10-16T08:57:41;3.45;;;1.40;;
25962;SDS011;13760;52.588;13.406;2022-10-16T09:00:13;2.58;;;1.48;;
25962;SDS011;13760;52.588;13.406;2022-10-16T09:02:52;2.90;;;1.40;;
25962;SDS011;13760;52.588;13.406;2022-10-16T09:05:23;1.83;;;1.73;;
25962;SDS011;13760;52.588;13.406;2022-10-16T09:11:09;3.70;;;1.60;;
25962;SDS011;13760;52.588;13.406;2022-10-16T09:14:11;3.08;;;1.20;;
25962;SDS011;13760;52.588;13.406;2022-10-16T09:16:49;4.50;;;1.48;;
25962;SDS011;13760;52.588;13.406;2022-10-16T09:19:31;2.95;;;1.52;;
25962;SDS011;13760;52.588;13.406;2022-10-16T09:22:10;4.75;;;1.40;;
25962;SDS011;13760;52.588;13.406;2022-10-16T09:24:39;1.90;;;1.40;;
25962;SDS011;13760;52.588;13.406;2022-10-16T09:27:04;6.82;;;1.52;;
25962;SDS011;13760;52.588;13.406;2022-10-16T09:29:36;1.60;;;1.40;;
25962;SDS011;13760;52.588;13.406;2022-10-16T09:32:14;2.95;;;1.30;;
25962;SDS011;13760;52.588;13.406;2022-10-16T09:34:51;1.83;;;1.23;;
25962;SDS011;13760;52.588;13.406;2022-10-16T09:37:19;1.73;;;1.25;;
25962;SDS011;13760;52.588;13.406;2022-10-16T09:39:51;2.42;;;1.30;;
25962;SDS011;13760;52.588;13.406;2022-10-16T09:42:18;2.22;;;1.40;;
25962;SDS011;13760;52.588;13.406;2022-10-16T09:45:20;2.20;;;1.20;;
25962;SDS011;13760;52.588;13.406;2022-10-16T09:47:48;3.28;;;1.50;;
25962;SDS011;13760;52.588;13.406;2022-10-16T09:50:24;1.70;;;1.10;;
25962;SDS011;13760;52.588;13.406;2022-10-16T09:53:04;1.98;;;1.33;;
25962;SDS011;13760;52.588;13.406;2022-10-16T09:55:31;2.78;;;1.40;;
25962;SDS011;13760;52.588;13.406;2022-10-16T09:57:56;1.58;;;1.13;;
25962;SDS011;13760;52.588;13.406;2022-10-16T10:00:22;3.00;;;1.20;;
25962;SDS011;13760;52.588;13.406;2022-10-16T10:02:49;1.77;;;1.20;;
25962;SDS011;13760;52.588;13.406;2022-10-16T10:05:22;4.03;;;1.52;;
25962;SDS011;13760;52.588;13.406;2022-10-16T10:07:54;1.70;;;1.23;;
25962;SDS011;13760;52.588;13.406;2022-10-16T10:10:28;2.90;;;1.25;;
25962;SDS011;13760;52.588;13.406;2022-10-16T10:12:57;3.15;;;1.20;;
25962;SDS011;13760;52.588;13.406;2022-10-16T10:15:24;1.63;;;1.13;;
25962;SDS011;13760;52.588;13.406;2022-10-16T10:17:53;5.30;;;1.33;;
25962;SDS011;13760;52.588;13.406;2022-10-16T10:20:27;3.33;;;1.20;;
25962;SDS011;13760;52.588;13.406;2022-10-16T10:22:59;1.92;;;1.15;;
25962;SDS011;13760;52.588;13.406;2022-10-16T10:28:18;1.73;;;1.02;;
25962;SDS011;13760;52.588;13.406;2022-10-16T10:30:56;1.40;;;1.23;;
25962;SDS011;13760;52.588;13.406;2022-10-16T10:41:43;2.25;;;1.00;;
25962;SDS011;13760;52.588;13.406;2022-10-16T10:47:12;1.48;;;1.10;;
25962;SDS011;13760;52.588;13.406;2022-10-16T10:52:27;3.45;;;1.30;;
25962;SDS011;13760;52.588;13.406;2022-10-16T10:55:06;4.60;;;0.95;;
25962;SDS011;13760;52.588;13.406;2022-10-16T11:08:19;1.15;;;0.90;;
25962;SDS011;13760;52.588;13.406;2022-10-16T11:10:49;1.60;;;0.98;;
25962;SDS011;13760;52.588;13.406;2022-10-16T11:13:30;2.08;;;1.10;;
25962;SDS011;13760;52.588;13.406;2022-10-16T11:18:49;2.45;;;0.90;;
25962;SDS011;13760;52.588;13.406;2022-10-16T11:21:22;1.83;;;1.00;;
25962;SDS011;13760;52.588;13.406;2022-10-16T11:26:42;3.08;;;1.05;;
25962;SDS011;13760;52.588;13.406;2022-10-16T11:29:19;3.72;;;1.20;;
25962;SDS011;13760;52.588;13.406;2022-10-16T11:31:55;3.08;;;1.20;;
25962;SDS011;13760;52.588;13.406;2022-10-16T11:34:50;1.83;;;0.82;;
25962;SDS011;13760;52.588;13.406;2022-10-16T11:37:22;1.77;;;1.00;;
25962;SDS011;13760;52.588;13.406;2022-10-16T11:39:52;3.15;;;0.93;;
25962;SDS011;13760;52.588;13.406;2022-10-16T11:42:28;1.42;;;0.80;;
25962;SDS011;13760;52.588;13.406;2022-10-16T11:47:52;1.60;;;0.70;;
25962;SDS011;13760;52.588;13.406;2022-10-16T11:50:34;2.40;;;0.85;;
25962;SDS011;13760;52.588;13.406;2022-10-16T11:53:13;0.73;;;0.60;;
25962;SDS011;13760;52.588;13.406;2022-10-16T11:55:48;1.38;;;0.88;;
25962;SDS011;13760;52.588;13.406;2022-10-16T11:58:20;1.42;;;0.75;;
25962;SDS011;13760;52.588;13.406;2022-10-16T12:01:22;3.70;;;1.15;;
25962;SDS011;13760;52.588;13.406;2022-10-16T12:07:21;2.15;;;0.70;;
25962;SDS011;13760;52.588;13.406;2022-10-16T12:09:55;1.58;;;0.60;;
25962;SDS011;13760;52.588;13.406;2022-10-16T12:17:47;2.05;;;0.60;;
25962;SDS011;13760;52.588;13.406;2022-10-16T12:22:52;1.02;;;0.70;;
25962;SDS011;13760;52.588;13.406;2022-10-16T12:25:21;1.15;;;0.60;;
25962;SDS011;13760;52.588;13.406;2022-10-16T12:28:06;1.45;;;0.60;;
25962;SDS011;13760;52.588;13.406;2022-10-16T12:30:52;2.80;;;0.60;;
25962;SDS011;13760;52.588;13.406;2022-10-16T12:33:21;2.83;;;0.50;;
25962;SDS011;13760;52.588;13.406;2022-10-16T12:35:49;1.98;;;0.52;;
25962;SDS011;13760;52.588;13.406;2022-10-16T12:38:32;1.60;;;0.80;;
25962;SDS011;13760;52.588;13.406;2022-10-16T12:41:10;2.83;;;1.05;;
25962;SDS011;13760;52.588;13.406;2022-10-16T12:43:43;1.30;;;0.60;;
25962;SDS011;13760;52.588;13.406;2022-10-16T12:48:37;3.97;;;0.60;;
25962;SDS011;13760;52.588;13.406;2022-10-16T12:59:57;2.95;;;0.50;;
25962;SDS011;13760;52.588;13.406;2022-10-16T13:08:46;0.85;;;0.40;;
25962;SDS011;13760;52.588;13.406;2022-10-16T13:28:34;1.30;;;0.80;;
25962;SDS011;13760;52.588;13.406;2022-10-16T13:31:03;0.40;;;0.35;;
25962;SDS011;13760;52.588;13.406;2022-10-16T13:33:33;0.75;;;0.50;;
25962;SDS011;13760;52.588;13.406;2022-10-16T13:36:00;1.90;;;0.60;;
25962;SDS011;13760;52.588;13.406;2022-10-16T13:38:27;4.13;;;0.60;;
25962;SDS011;13760;52.588;13.406;2022-10-16T13:43:35;1.00;;;0.57;;
25962;SDS011;13760;52.588;13.406;2022-10-16T13:46:20;2.85;;;0.60;;
25962;SDS011;13760;52.588;13.406;2022-10-16T13:48:58;1.23;;;0.40;;
25962;SDS011;13760;52.588;13.406;2022-10-16T13:51:29;1.63;;;0.55;;
25962;SDS011;13760;52.588;13.406;2022-10-16T13:53:56;3.67;;;0.50;;
25962;SDS011;13760;52.588;13.406;2022-10-16T13:56:25;1.80;;;0.63;;
25962;SDS011;13760;52.588;13.406;2022-10-16T13:59:07;2.55;;;0.60;;
25962;SDS011;13760;52.588;13.406;2022-10-16T14:01:54;2.13;;;0.50;;
25962;SDS011;13760;52.588;13.406;2022-10-16T14:04:22;1.98;;;0.55;;
25962;SDS011;13760;52.588;13.406;2022-10-16T14:06:50;4.88;;;0.70;;
25962;SDS011;13760;52.588;13.406;2022-10-16T14:09:20;2.20;;;0.60;;
25962;SDS011;13760;52.588;13.406;2022-10-16T14:12:00;1.38;;;0.43;;
25962;SDS011;13760;52.588;13.406;2022-10-16T14:14:31;2.17;;;0.50;;
25962;SDS011;13760;52.588;13.406;2022-10-16T14:17:00;2.72;;;0.68;;
25962;SDS011;13760;52.588;13.406;2022-10-16T14:19:28;1.75;;;0.60;;
25962;SDS011;13760;52.588;13.406;2022-10-16T14:21:55;1.45;;;0.80;;
25962;SDS011;13760;52.588;13.406;2022-10-16T14:24:31;2.05;;;0.57;;
25962;SDS011;13760;52.588;13.406;2022-10-16T14:26:59;0.98;;;0.40;;
25962;SDS011;13760;52.588;13.406;2022-10-16T14:29:30;0.77;;;0.40;;
25962;SDS011;13760;52.588;13.406;2022-10-16T14:32:04;2.28;;;0.60;;
25962;SDS011;13760;52.588;13.406;2022-10-16T14:34:52;0.80;;;0.60;;
25962;SDS011;13760;52.588;13.406;2022-10-16T14:37:26;2.40;;;0.50;;
25962;SDS011;13760;52.588;13.406;2022-10-16T14:39:53;5.03;;;0.80;;
25962;SDS011;13760;52.588;13.406;2022-10-16T14:42:20;2.58;;;0.63;;
25962;SDS011;13760;52.588;13.406;2022-10-16T14:44:51;1.73;;;0.50;;
25962;SDS011;13760;52.588;13.406;2022-10-16T14:47:19;1.25;;;0.68;;
25962;SDS011;13760;52.588;13.406;2022-10-16T14:49:51;1.23;;;0.88;;
25962;SDS011;13760;52.588;13.406;2022-10-16T14:52:20;1.20;;;0.65;;
25962;SDS011;13760;52.588;13.406;2022-10-16T14:54:48;1.05;;;0.65;;
25962;SDS011;13760;52.588;13.406;2022-10-16T14:57:21;3.30;;;2.92;;
25962;SDS011;13760;52.588;13.406;2022-10-16T14:59:49;1.98;;;0.70;;
25962;SDS011;13760;52.588;13.406;2022-10-16T15:02:29;0.70;;;0.50;;
25962;SDS011;13760;52.588;13.406;2022-10-16T15:04:57;1.02;;;0.70;;
25962;SDS011;13760;52.588;13.406;2022-10-16T15:07:36;2.05;;;0.95;;
25962;SDS011;13760;52.588;13.406;2022-10-16T15:10:02;1.23;;;0.80;;
25962;SDS011;13760;52.588;13.406;2022-10-16T15:12:27;3.28;;;0.88;;
25962;SDS011;13760;52.588;13.406;2022-10-16T15:14:53;1.75;;;0.70;;
25962;SDS011;13760;52.588;13.406;2022-10-16T15:17:18;0.70;;;0.63;;
25962;SDS011;13760;52.588;13.406;2022-10-16T15:19:44;4.15;;;0.85;;
25962;SDS011;13760;52.588;13.406;2022-10-16T15:22:11;1.67;;;0.70;;
25962;SDS011;13760;52.588;13.406;2022-10-16T15:24:42;2.20;;;0.80;;
25962;SDS011;13760;52.588;13.406;2022-10-16T15:27:30;1.48;;;0.82;;
25962;SDS011;13760;52.588;13.406;2022-10-16T15:29:58;2.25;;;0.80;;
25962;SDS011;13760;52.588;13.406;2022-10-16T15:32:28;2.72;;;0.73;;
25962;SDS011;13760;52.588;13.406;2022-10-16T15:34:54;2.35;;;0.73;;
25962;SDS011;13760;52.588;13.406;2022-10-16T15:37:19;2.47;;;0.88;;
25962;SDS011;13760;52.588;13.406;2022-10-16T15:40:05;0.93;;;0.77;;
25962;SDS011;13760;52.588;13.406;2022-10-16T15:42:37;1.88;;;0.65;;
25962;SDS011;13760;52.588;13.406;2022-10-16T15:48:29;1.90;;;0.90;;
25962;SDS011;13760;52.588;13.406;2022-10-16T15:50:55;1.15;;;0.85;;
25962;SDS011;13760;52.588;13.406;2022-10-16T15:53:21;2.50;;;1.10;;
25962;SDS011;13760;52.588;13.406;2022-10-16T15:55:46;2.60;;;1.00;;
25962;SDS011;13760;52.588;13.406;2022-10-16T15:58:12;2.53;;;0.85;;
25962;SDS011;13760;52.588;13.406;2022-10-16T16:00:40;1.13;;;0.82;;
25962;SDS011;13760;52.588;13.406;2022-10-16T16:03:27;2.25;;;1.00;;
25962;SDS011;13760;52.588;13.406;2022-10-16T16:06:11;2.15;;;1.10;;
25962;SDS011;13760;52.588;13.406;2022-10-16T16:08:38;2.20;;;1.00;;
25962;SDS011;13760;52.588;13.406;2022-10-16T16:11:11;1.50;;;1.00;;
25962;SDS011;13760;52.588;13.406;2022-10-16T16:13:39;2.88;;;1.10;;
25962;SDS011;13760;52.588;13.406;2022-10-16T16:16:09;2.53;;;1.20;;
25962;SDS011;13760;52.588;13.406;2022-10-16T16:18:37;3.97;;;2.00;;
25962;SDS011;13760;52.588;13.406;2022-10-16T16:21:03;3.17;;;2.38;;
25962;SDS011;13760;52.588;13.406;2022-10-16T16:23:30;8.50;;;4.35;;
25962;SDS011;13760;52.588;13.406;2022-10-16T16:28:40;6.18;;;3.15;;
25962;SDS011;13760;52.588;13.406;2022-10-16T16:31:07;6.90;;;4.30;;
25962;SDS011;13760;52.588;13.406;2022-10-16T16:33:33;9.85;;;5.72;;
25962;SDS011;13760;52.588;13.406;2022-10-16T16:35:59;12.25;;;6.30;;
25962;SDS011;13760;52.588;13.406;2022-10-16T16:38:26;10.05;;;5.90;;
25962;SDS011;13760;52.588;13.406;2022-10-16T16:40:53;11.63;;;5.50;;